createdAt,value
2018-09-10T00:02:10.684Z,8.53
2018-09-10T00:04:38.743Z,6.13
2018-09-10T00:07:06.804Z,7.03
2018-09-10T00:09:35.113Z,6.35
2018-09-10T00:12:03.364Z,6.23
2018-09-10T00:14:31.437Z,7.57
2018-09-10T00:16:59.517Z,6.23
2018-09-10T00:19:27.987Z,6.47
2018-09-10T00:21:56.154Z,8.60
2018-09-10T00:24:24.209Z,6.83
2018-09-10T00:26:52.512Z,6.60
2018-09-10T00:29:20.907Z,6.43
2018-09-10T00:31:48.971Z,7.53
2018-09-10T00:34:17.029Z,7.87
2018-09-10T00:36:45.094Z,6.70
2018-09-10T00:39:14.625Z,6.25
2018-09-10T00:41:43.088Z,6.80
2018-09-10T00:44:24.320Z,6.20
2018-09-10T00:46:52.367Z,6.40
2018-09-10T00:49:26.684Z,7.67
2018-09-10T00:51:54.923Z,6.53
2018-09-10T00:54:22.969Z,6.07
2018-09-10T00:56:51.020Z,5.73
2018-09-10T00:59:19.047Z,5.53
2018-09-10T01:01:47.108Z,5.97
2018-09-10T01:04:15.179Z,5.67
2018-09-10T01:06:43.209Z,6.13
2018-09-10T01:09:11.431Z,6.07
2018-09-10T01:11:40.009Z,5.70
2018-09-10T01:14:08.643Z,7.10
2018-09-10T01:16:36.700Z,6.70
2018-09-10T01:19:04.920Z,6.17
2018-09-10T01:21:32.992Z,6.10
2018-09-10T01:24:01.028Z,8.13
2018-09-10T01:26:29.090Z,5.93
2018-09-10T01:28:57.172Z,5.00
2018-09-10T01:31:25.608Z,5.20
2018-09-10T01:33:59.278Z,5.20
2018-09-10T01:36:27.358Z,5.83
2018-09-10T01:38:55.433Z,5.47
2018-09-10T01:41:23.524Z,4.40
2018-09-10T01:43:51.588Z,6.97
2018-09-10T01:46:19.996Z,4.35
2018-09-10T01:48:48.564Z,4.87
2018-09-10T01:51:16.616Z,5.00
2018-09-10T01:53:44.676Z,6.23
2018-09-10T01:56:12.727Z,7.03
2018-09-10T01:58:41.023Z,6.00
2018-09-10T02:01:09.092Z,4.97
2018-09-10T02:03:37.149Z,6.27
2018-09-10T02:06:05.491Z,5.27
2018-09-10T02:08:33.597Z,4.80
2018-09-10T02:11:01.974Z,5.73
2018-09-10T02:13:30.310Z,5.10
2018-09-10T02:15:58.414Z,6.10
2018-09-10T02:18:26.444Z,4.37
2018-09-10T02:20:54.501Z,5.27
2018-09-10T02:23:22.551Z,5.10
2018-09-10T02:25:50.608Z,6.23
2018-09-10T02:28:18.737Z,5.70
2018-09-10T02:30:49.465Z,6.13
2018-09-10T02:33:17.509Z,6.05
2018-09-10T02:35:45.708Z,5.90
2018-09-10T02:38:13.773Z,7.05
2018-09-10T02:40:42.141Z,6.83
2018-09-10T02:43:10.207Z,9.10
2018-09-10T02:45:38.226Z,5.73
2018-09-10T02:48:06.282Z,7.20
2018-09-10T02:50:34.317Z,6.93
2018-09-10T02:53:02.377Z,6.60
2018-09-10T02:55:30.728Z,8.37
2018-09-10T02:57:58.776Z,7.63
2018-09-10T03:00:26.828Z,7.17
2018-09-10T03:02:55.379Z,7.03
2018-09-10T03:05:23.691Z,8.27
2018-09-10T03:07:51.775Z,6.43
2018-09-10T03:10:22.248Z,6.97
2018-09-10T03:12:50.940Z,7.73
2018-09-10T03:15:18.993Z,7.62
2018-09-10T03:17:47.055Z,8.50
2018-09-10T03:20:15.091Z,7.73
2018-09-10T03:22:43.385Z,8.17
2018-09-10T03:25:11.521Z,6.97
2018-09-10T03:27:39.589Z,7.43
2018-09-10T03:30:07.632Z,7.17
2018-09-10T03:32:35.687Z,6.90
2018-09-10T03:35:03.988Z,7.80
2018-09-10T03:37:32.088Z,7.27
2018-09-10T03:40:00.133Z,7.13
2018-09-10T03:42:28.175Z,7.33
2018-09-10T03:44:56.225Z,7.43
2018-09-10T03:47:24.751Z,8.13
2018-09-10T03:49:53.028Z,8.03
2018-09-10T03:52:21.400Z,6.93
2018-09-10T03:54:49.577Z,9.67
2018-09-10T03:57:17.748Z,8.43
2018-09-10T03:59:45.804Z,7.80
2018-09-10T04:02:14.024Z,6.80
2018-09-10T04:04:42.126Z,8.63
2018-09-10T04:07:10.174Z,8.78
2018-09-10T04:09:38.264Z,7.57
2018-09-10T04:12:06.481Z,8.27
2018-09-10T04:14:34.552Z,8.50
2018-09-10T04:17:02.653Z,9.73
2018-09-10T04:19:30.730Z,8.77
2018-09-10T04:21:58.748Z,10.77
2018-09-10T04:24:26.860Z,9.43
2018-09-10T04:26:54.913Z,11.43
2018-09-10T04:29:22.980Z,10.90
2018-09-10T04:31:51.024Z,11.10
2018-09-10T04:34:19.095Z,11.67
2018-09-10T04:36:47.342Z,12.77
2018-09-10T04:39:15.384Z,11.27
2018-09-10T04:41:43.963Z,12.17
2018-09-10T04:44:12.033Z,13.03
2018-09-10T04:46:40.612Z,11.35
2018-09-10T04:49:09.622Z,11.27
2018-09-10T04:51:37.660Z,11.97
2018-09-10T04:54:06.812Z,12.43
2018-09-10T04:56:34.982Z,12.40
2018-09-10T04:59:04.455Z,13.13
2018-09-10T05:01:32.693Z,11.67
2018-09-10T05:04:00.794Z,12.40
2018-09-10T05:09:19.153Z,12.73
2018-09-10T05:11:47.234Z,12.80
2018-09-10T05:14:15.284Z,15.07
2018-09-10T05:17:01.492Z,13.18
2018-09-10T05:19:30.368Z,14.60
2018-09-10T05:22:00.738Z,13.57
2018-09-10T05:24:29.194Z,13.85
2018-09-10T05:26:57.273Z,14.57
2018-09-10T05:29:25.339Z,15.97
2018-09-10T05:31:53.387Z,15.03
2018-09-10T05:34:21.444Z,16.85
2018-09-10T05:36:49.795Z,15.00
2018-09-10T05:39:17.851Z,12.05
2018-09-10T05:41:45.964Z,15.60
2018-09-10T05:44:13.960Z,16.57
2018-09-10T05:46:42.000Z,14.80
2018-09-10T05:49:10.025Z,15.25
2018-09-10T05:51:38.149Z,16.75
2018-09-10T05:54:06.381Z,14.83
2018-09-10T05:56:34.412Z,15.57
2018-09-10T05:59:03.250Z,16.83
2018-09-10T06:01:31.293Z,17.93
2018-09-10T06:03:59.321Z,15.90
2018-09-10T06:06:27.516Z,18.53
2018-09-10T06:08:55.721Z,18.77
2018-09-10T06:11:23.748Z,19.07
2018-09-10T06:13:51.792Z,17.73
2018-09-10T06:16:19.918Z,15.70
2018-09-10T06:18:48.480Z,20.07
2018-09-10T06:21:16.539Z,18.70
2018-09-10T06:23:44.573Z,17.97
2018-09-10T06:26:12.820Z,21.93
2018-09-10T06:28:41.069Z,16.97
2018-09-10T06:31:09.446Z,15.87
2018-09-10T06:33:37.612Z,18.20
2018-09-10T06:36:05.681Z,20.20
2018-09-10T06:38:33.791Z,18.73
2018-09-10T06:41:01.821Z,17.53
2018-09-10T06:43:29.852Z,18.60
2018-09-10T06:45:57.949Z,19.20
2018-09-10T06:48:26.068Z,26.23
2018-09-10T06:50:54.112Z,17.83
2018-09-10T06:53:22.194Z,23.43
2018-09-10T06:55:50.485Z,20.70
2018-09-10T06:58:18.528Z,18.83
2018-09-10T07:00:46.568Z,18.53
2018-09-10T07:03:14.794Z,22.22
2018-09-10T07:05:42.841Z,23.27
2018-09-10T07:08:10.944Z,21.42
2018-09-10T07:10:38.995Z,23.00
2018-09-10T07:13:07.125Z,21.43
2018-09-10T07:15:35.328Z,22.57
2018-09-10T07:18:03.378Z,23.40
2018-09-10T07:20:31.404Z,20.50
2018-09-10T07:22:59.459Z,19.27
2018-09-10T07:25:27.508Z,24.57
2018-09-10T07:27:55.548Z,20.53
2018-09-10T07:30:23.609Z,24.70
2018-09-10T07:32:51.628Z,22.47
2018-09-10T07:35:19.691Z,20.25
2018-09-10T07:37:47.773Z,22.43
2018-09-10T07:40:15.908Z,21.33
2018-09-10T07:42:43.985Z,20.47
2018-09-10T07:45:12.036Z,21.57
2018-09-10T07:47:40.136Z,22.90
2018-09-10T07:50:08.202Z,21.10
2018-09-10T07:52:36.393Z,19.83
2018-09-10T07:55:05.442Z,20.02
2018-09-10T07:57:33.489Z,20.70
2018-09-10T08:00:01.925Z,17.80
2018-09-10T08:02:30.120Z,18.23
2018-09-10T08:04:58.174Z,21.27
2018-09-10T08:07:26.202Z,16.57
2018-09-10T08:09:54.752Z,20.20
2018-09-10T08:12:22.857Z,22.13
2018-09-10T08:14:50.919Z,22.03
2018-09-10T08:17:18.953Z,18.17
2018-09-10T08:19:46.995Z,16.80
2018-09-10T08:22:15.192Z,17.17
2018-09-10T08:24:43.313Z,18.73
2018-09-10T08:27:11.366Z,20.23
2018-09-10T08:29:39.421Z,25.10
2018-09-10T08:32:07.512Z,16.50
2018-09-10T08:34:35.584Z,17.27
2018-09-10T08:37:05.056Z,16.80
2018-09-10T08:39:33.155Z,18.93
2018-09-10T08:42:01.195Z,16.77
2018-09-10T08:44:29.584Z,17.63
2018-09-10T08:46:57.740Z,19.90
2018-09-10T08:49:25.791Z,20.00
2018-09-10T08:51:54.208Z,13.97
2018-09-10T08:54:22.349Z,18.93
2018-09-10T08:56:50.269Z,19.20
2018-09-10T08:59:18.313Z,18.90
2018-09-10T09:01:46.553Z,19.80
2018-09-10T09:04:14.576Z,22.40
2018-09-10T09:06:42.613Z,17.17
2018-09-10T09:09:10.728Z,17.30
2018-09-10T09:11:38.767Z,17.07
2018-09-10T09:14:06.817Z,15.77
2018-09-10T09:16:34.895Z,19.20
2018-09-10T09:19:02.944Z,14.97
2018-09-10T09:21:30.976Z,18.10
2018-09-10T09:23:59.032Z,22.47
2018-09-10T09:26:27.068Z,17.87
2018-09-10T09:28:55.116Z,17.67
2018-09-10T09:31:23.178Z,17.07
2018-09-10T09:33:51.215Z,16.43
2018-09-10T09:36:24.574Z,15.85
2018-09-10T09:41:02.621Z,19.00
2018-09-10T09:43:36.338Z,15.33
2018-09-10T09:46:08.759Z,16.37
2018-09-10T09:48:36.820Z,16.17
2018-09-10T09:51:05.689Z,13.83
2018-09-10T09:53:35.224Z,16.30
2018-09-10T09:56:03.432Z,12.43
2018-09-10T09:58:31.455Z,13.20
2018-09-10T10:01:04.797Z,17.23
2018-09-10T10:03:38.314Z,16.87
2018-09-10T10:06:06.468Z,14.40
2018-09-10T10:08:34.613Z,17.30
2018-09-10T10:11:02.665Z,14.13
2018-09-10T10:13:30.687Z,13.07
2018-09-10T10:15:58.717Z,15.03
2018-09-10T10:18:26.736Z,13.10
2018-09-10T10:20:54.803Z,11.13
2018-09-10T10:23:22.837Z,11.22
2018-09-10T10:25:51.052Z,10.70
2018-09-10T10:28:19.124Z,9.90
2018-09-10T10:30:47.134Z,11.60
2018-09-10T10:33:15.187Z,9.38
2018-09-10T10:35:43.282Z,8.00
2018-09-10T10:38:11.310Z,6.13
2018-09-10T10:40:39.345Z,6.83
2018-09-10T10:43:07.373Z,6.27
2018-09-10T10:45:35.401Z,8.43
2018-09-10T10:48:03.440Z,7.80
2018-09-10T10:50:31.454Z,7.57
2018-09-10T10:52:59.484Z,6.70
2018-09-10T10:55:27.514Z,4.53
2018-09-10T10:57:55.541Z,6.90
2018-09-10T11:00:23.574Z,7.67
2018-09-10T11:02:51.599Z,6.50
2018-09-10T11:05:19.620Z,6.17
2018-09-10T11:07:47.652Z,5.83
2018-09-10T11:10:15.884Z,5.93
2018-09-10T11:12:50.624Z,6.63
2018-09-10T11:15:18.964Z,6.10
2018-09-10T11:17:46.992Z,6.27
2018-09-10T11:20:15.025Z,7.23
2018-09-10T11:22:43.320Z,4.50
2018-09-10T11:25:11.350Z,5.70
2018-09-10T11:27:39.439Z,4.53
2018-09-10T11:30:07.437Z,4.23
2018-09-10T11:32:35.559Z,4.97
2018-09-10T11:35:03.597Z,3.27
2018-09-10T11:37:31.633Z,3.43
2018-09-10T11:39:59.679Z,3.20
2018-09-10T11:42:27.705Z,5.55
2018-09-10T11:44:55.727Z,4.40
2018-09-10T11:47:23.843Z,6.20
2018-09-10T11:49:51.891Z,5.53
2018-09-10T11:52:20.104Z,4.53
2018-09-10T11:54:48.148Z,6.00
2018-09-10T11:57:17.111Z,4.33
2018-09-10T11:59:45.149Z,5.87
2018-09-10T12:02:13.324Z,4.67
2018-09-10T12:04:41.257Z,5.27
2018-09-10T12:07:10.209Z,5.23
2018-09-10T12:09:38.317Z,7.50
2018-09-10T12:12:06.571Z,8.95
2018-09-10T12:14:34.653Z,3.47
2018-09-10T12:17:02.672Z,3.53
2018-09-10T12:19:30.928Z,5.27
2018-09-10T12:21:58.992Z,5.73
2018-09-10T12:24:27.037Z,4.47
2018-09-10T12:26:55.079Z,5.07
2018-09-10T12:29:23.112Z,3.93
2018-09-10T12:32:03.240Z,5.40
2018-09-10T12:34:31.273Z,3.03
2018-09-10T12:36:59.300Z,5.23
2018-09-10T12:39:27.463Z,4.87
2018-09-10T12:41:55.556Z,3.93
2018-09-10T12:44:23.609Z,3.93
2018-09-10T12:46:51.687Z,7.23
2018-09-10T12:49:20.049Z,4.23
2018-09-10T12:51:48.102Z,4.13
2018-09-10T12:54:16.112Z,3.70
2018-09-10T12:56:44.556Z,5.77
2018-09-10T12:59:12.580Z,2.97
2018-09-10T13:01:40.638Z,2.97
2018-09-10T13:04:08.679Z,3.40
2018-09-10T13:06:36.704Z,3.72
2018-09-10T13:09:06.488Z,3.63
2018-09-10T13:11:34.617Z,4.03
2018-09-10T13:14:02.883Z,2.43
2018-09-10T13:16:30.945Z,3.43
2018-09-10T13:18:58.973Z,2.50
2018-09-10T13:21:27.003Z,3.17
2018-09-10T13:23:55.058Z,1.97
2018-09-10T13:26:23.097Z,3.67
2018-09-10T13:28:51.138Z,4.10
2018-09-10T13:31:19.165Z,3.37
2018-09-10T13:33:47.366Z,2.83
2018-09-10T13:36:15.401Z,2.40
2018-09-10T13:38:43.432Z,3.77
2018-09-10T13:41:11.462Z,3.60
2018-09-10T13:43:39.578Z,2.43
2018-09-10T13:46:07.648Z,4.23
2018-09-10T13:48:35.696Z,2.20
2018-09-10T13:51:03.749Z,3.47
2018-09-10T13:53:31.765Z,3.53
2018-09-10T13:55:59.792Z,3.53
2018-09-10T13:58:27.831Z,2.20
2018-09-10T14:00:55.961Z,3.53
2018-09-10T14:03:24.000Z,4.17
2018-09-10T14:05:52.056Z,2.43
2018-09-10T14:08:20.100Z,1.80
2018-09-10T14:10:48.356Z,2.57
2018-09-10T14:13:16.316Z,2.55
2018-09-10T14:15:44.354Z,2.90
2018-09-10T14:18:12.681Z,3.23
2018-09-10T14:20:40.821Z,4.87
2018-09-10T14:23:08.876Z,3.53
2018-09-10T14:25:36.897Z,2.90
2018-09-10T14:28:05.294Z,3.23
2018-09-10T14:30:33.326Z,2.90
2018-09-10T14:33:01.494Z,2.40
2018-09-10T14:35:29.533Z,3.87
2018-09-10T14:37:57.579Z,3.17
2018-09-10T14:40:25.616Z,4.30
2018-09-10T14:42:53.663Z,3.83
2018-09-10T14:45:21.750Z,3.00
2018-09-10T14:47:49.788Z,4.10
2018-09-10T14:50:17.871Z,1.85
2018-09-10T14:52:45.853Z,2.37
2018-09-10T14:55:14.144Z,4.20
2018-09-10T14:57:42.192Z,5.07
2018-09-10T15:00:14.456Z,4.57
2018-09-10T15:02:42.920Z,3.57
2018-09-10T15:08:03.294Z,3.37
2018-09-10T15:10:31.320Z,3.93
2018-09-10T15:12:59.366Z,2.50
2018-09-10T15:15:27.772Z,3.17
2018-09-10T15:17:55.791Z,6.40
2018-09-10T15:20:24.035Z,4.50
2018-09-10T15:22:52.204Z,3.85
2018-09-10T15:25:20.229Z,2.47
2018-09-10T15:27:48.281Z,4.60
2018-09-10T15:30:16.456Z,2.47
2018-09-10T15:32:44.493Z,4.50
2018-09-10T15:35:12.526Z,4.30
2018-09-10T15:37:40.562Z,3.23
2018-09-10T15:40:08.605Z,3.07
2018-09-10T15:42:36.649Z,2.30
2018-09-10T15:45:04.751Z,5.37
2018-09-10T15:47:32.761Z,4.20
2018-09-10T15:50:00.780Z,4.57
2018-09-10T15:52:28.821Z,5.00
2018-09-10T15:54:56.866Z,2.83
2018-09-10T15:57:25.240Z,3.00
2018-09-10T15:59:53.239Z,4.97
2018-09-10T16:02:21.345Z,6.35
2018-09-10T16:04:49.928Z,6.77
2018-09-10T16:07:18.016Z,3.87
2018-09-10T16:09:46.237Z,4.37
2018-09-10T16:12:15.584Z,3.07
2018-09-10T16:14:43.819Z,2.73
2018-09-10T16:17:12.431Z,4.10
2018-09-10T16:19:40.472Z,2.30
2018-09-10T16:22:08.525Z,2.17
2018-09-10T16:24:36.557Z,3.93
2018-09-10T16:27:05.082Z,3.30
2018-09-10T16:29:33.127Z,2.43
2018-09-10T16:32:01.176Z,2.47
2018-09-10T16:34:29.273Z,3.50
2018-09-10T16:36:57.342Z,5.93
2018-09-10T16:39:25.397Z,4.63
2018-09-10T16:41:53.505Z,4.00
2018-09-10T16:44:21.533Z,2.62
2018-09-10T16:46:49.676Z,2.50
2018-09-10T16:49:17.745Z,2.33
2018-09-10T16:51:45.785Z,2.50
2018-09-10T16:54:14.098Z,2.60
2018-09-10T16:56:42.043Z,2.45
2018-09-10T16:59:10.107Z,2.70
2018-09-10T17:01:38.328Z,4.03
2018-09-10T17:04:06.445Z,3.00
2018-09-10T17:06:41.167Z,2.73
2018-09-10T17:09:09.332Z,2.70
2018-09-10T17:11:37.396Z,3.10
2018-09-10T17:14:05.791Z,3.53
2018-09-10T17:16:33.828Z,3.20
2018-09-10T17:19:02.029Z,3.50
2018-09-10T17:21:30.094Z,3.50
2018-09-10T17:23:59.372Z,3.07
2018-09-10T17:26:27.680Z,2.50
2018-09-10T17:28:55.765Z,3.27
2018-09-10T17:31:23.801Z,3.87
2018-09-10T17:33:52.020Z,2.55
2018-09-10T17:36:20.113Z,3.83
2018-09-10T17:38:48.183Z,2.83
2018-09-10T17:41:16.398Z,4.37
2018-09-10T17:43:44.457Z,2.70
2018-09-10T17:46:12.556Z,3.03
2018-09-10T17:48:40.610Z,3.27
2018-09-10T17:51:08.831Z,2.50
2018-09-10T17:53:37.134Z,1.90
2018-09-10T17:56:05.357Z,2.53
2018-09-10T17:58:33.446Z,2.87
2018-09-10T18:01:01.740Z,4.20
2018-09-10T18:03:29.801Z,3.20
2018-09-10T18:05:57.871Z,5.17
2018-09-10T18:08:26.000Z,6.13
2018-09-10T18:10:54.113Z,4.00
2018-09-10T18:13:22.185Z,4.12
2018-09-10T18:15:50.205Z,4.60
2018-09-10T18:18:18.252Z,4.03
2018-09-10T18:20:46.294Z,4.37
2018-09-10T18:23:14.358Z,3.33
2018-09-10T18:25:42.389Z,3.60
2018-09-10T18:28:10.572Z,2.83
2018-09-10T18:30:38.997Z,3.80
2018-09-10T18:33:07.066Z,3.07
2018-09-10T18:35:35.144Z,4.67
2018-09-10T18:38:03.195Z,3.87
2018-09-10T18:40:31.257Z,4.90
2018-09-10T18:42:59.345Z,6.17
2018-09-10T18:45:27.423Z,5.03
2018-09-10T18:47:55.461Z,4.53
2018-09-10T18:50:23.517Z,5.33
2018-09-10T18:52:51.848Z,3.97
2018-09-10T18:55:19.892Z,3.47
2018-09-10T18:57:48.620Z,6.40
2018-09-10T19:00:16.965Z,3.50
2018-09-10T19:02:45.064Z,5.80
2018-09-10T19:05:13.273Z,7.90
2018-09-10T19:07:41.517Z,5.27
2018-09-10T19:10:09.950Z,4.90
2018-09-10T19:12:38.394Z,5.07
2018-09-10T19:15:06.636Z,3.90
2018-09-10T19:17:34.772Z,4.40
2018-09-10T19:20:03.044Z,3.53
2018-09-10T19:22:45.645Z,3.50
2018-09-10T19:25:13.696Z,4.00
2018-09-10T19:27:41.762Z,5.47
2018-09-10T19:30:10.157Z,4.37
2018-09-10T19:32:38.507Z,6.57
2018-09-10T19:35:06.545Z,4.93
2018-09-10T19:37:34.667Z,5.70
2018-09-10T19:40:02.718Z,4.87
2018-09-10T19:42:30.778Z,4.40
2018-09-10T19:44:58.840Z,3.50
2018-09-10T19:47:26.952Z,4.10
2018-09-10T19:49:55.026Z,4.73
2018-09-10T19:52:23.076Z,5.33
2018-09-10T19:54:51.157Z,5.67
2018-09-10T19:57:19.329Z,4.80
2018-09-10T19:59:47.407Z,5.10
2018-09-10T20:02:15.458Z,5.83
2018-09-10T20:04:43.521Z,5.40
2018-09-10T20:07:11.723Z,4.93
2018-09-10T20:09:39.849Z,5.40
2018-09-10T20:12:07.861Z,5.23
2018-09-10T20:14:36.010Z,8.10
2018-09-10T20:17:04.089Z,6.83
2018-09-10T20:19:32.161Z,5.43
2018-09-10T20:22:00.239Z,7.67
2018-09-10T20:24:28.293Z,8.20
2018-09-10T20:26:56.336Z,9.13
2018-09-10T20:29:24.381Z,6.67
2018-09-10T20:31:52.439Z,8.63
2018-09-10T20:34:20.586Z,8.70
2018-09-10T20:36:48.631Z,7.40
2018-09-10T20:39:16.687Z,9.00
2018-09-10T20:41:44.717Z,6.50
2018-09-10T20:44:12.784Z,10.70
2018-09-10T20:46:40.845Z,8.90
2018-09-10T20:49:08.896Z,6.70
2018-09-10T20:51:37.185Z,9.17
2018-09-10T20:54:05.267Z,10.13
2018-09-10T20:56:33.326Z,7.50
2018-09-10T20:59:02.001Z,7.70
2018-09-10T21:01:30.273Z,8.27
2018-09-10T21:03:58.312Z,9.60
2018-09-10T21:06:26.400Z,6.33
2018-09-10T21:08:54.499Z,7.67
2018-09-10T21:11:22.712Z,6.85
2018-09-10T21:13:51.095Z,9.10
2018-09-10T21:16:19.144Z,8.13
2018-09-10T21:18:47.372Z,7.27
2018-09-10T21:21:15.421Z,5.62
2018-09-10T21:23:43.660Z,7.57
2018-09-10T21:26:11.907Z,6.20
2018-09-10T21:28:39.936Z,5.77
2018-09-10T21:31:07.939Z,8.25
2018-09-10T21:33:36.219Z,5.47
2018-09-10T21:36:05.216Z,6.10
2018-09-10T21:38:33.227Z,5.77
2018-09-10T21:41:01.252Z,6.47
2018-09-10T21:43:29.410Z,6.97
2018-09-10T21:45:57.428Z,7.00
2018-09-10T21:48:25.595Z,6.87
2018-09-10T21:50:53.656Z,5.53
2018-09-10T21:53:21.943Z,8.80
2018-09-10T21:55:50.001Z,6.07
2018-09-10T21:58:18.032Z,6.37
2018-09-10T22:00:51.547Z,7.70
2018-09-10T22:03:19.928Z,7.40
2018-09-10T22:05:47.963Z,8.73
2018-09-10T22:08:16.274Z,7.50
2018-09-10T22:10:44.385Z,7.73
2018-09-10T22:13:12.700Z,5.78
2018-09-10T22:15:41.295Z,11.00
2018-09-10T22:18:09.328Z,7.67
2018-09-10T22:20:37.424Z,8.53
2018-09-10T22:23:05.645Z,9.93
2018-09-10T22:25:33.736Z,6.40
2018-09-10T22:28:01.780Z,7.45
2018-09-10T22:30:29.849Z,5.80
2018-09-10T22:32:57.892Z,7.43
2018-09-10T22:35:25.907Z,7.07
2018-09-10T22:37:53.963Z,8.33
2018-09-10T22:40:21.992Z,7.47
2018-09-10T22:42:50.051Z,7.83
2018-09-10T22:45:18.620Z,6.45
2018-09-10T22:47:46.742Z,6.58
2018-09-10T22:50:15.316Z,7.97
2018-09-10T22:52:43.338Z,7.40
2018-09-10T22:55:11.477Z,5.13
2018-09-10T22:57:39.544Z,8.33
2018-09-10T23:00:07.937Z,9.87
2018-09-10T23:02:36.094Z,7.47
2018-09-10T23:05:04.144Z,5.80
2018-09-10T23:07:32.164Z,8.13
2018-09-10T23:10:00.224Z,9.10
2018-09-10T23:12:28.244Z,6.83
2018-09-10T23:14:56.294Z,8.07
2018-09-10T23:17:24.316Z,9.17
2018-09-10T23:19:52.788Z,8.00
2018-09-10T23:22:20.877Z,8.05
2018-09-10T23:24:48.897Z,7.97
2018-09-10T23:27:16.918Z,11.80
2018-09-10T23:29:44.945Z,6.53
2018-09-10T23:32:12.960Z,9.17
2018-09-10T23:34:41.111Z,10.20
2018-09-10T23:37:09.160Z,8.53
2018-09-10T23:39:37.380Z,9.07
2018-09-10T23:42:05.505Z,7.80
2018-09-10T23:44:33.736Z,15.53
2018-09-10T23:47:01.794Z,10.63
2018-09-10T23:49:29.976Z,8.37
2018-09-10T23:51:58.003Z,7.77
2018-09-10T23:54:26.096Z,8.80
2018-09-10T23:56:54.184Z,10.13
2018-09-10T23:59:22.604Z,8.23
